sensor_id;sensor_type;location;lat;lon;timestamp;temperature;humidity
66019;HTU21D;52787;51.084;5.816;2024-01-30T00:02:10;10.33;73.91
66019;HTU21D;52787;51.084;5.816;2024-01-30T00:04:36;10.33;73.88
66019;HTU21D;52787;51.084;5.816;2024-01-30T00:07:02;10.35;73.74
66019;HTU21D;52787;51.084;5.816;2024-01-30T00:09:28;10.37;73.79
66019;HTU21D;52787;51.084;5.816;2024-01-30T00:11:54;10.38;73.75
66019;HTU21D;52787;51.084;5.816;2024-01-30T00:14:20;10.39;73.63
66019;HTU21D;52787;51.084;5.816;2024-01-30T00:16:45;10.38;73.61
66019;HTU21D;52787;51.084;5.816;2024-01-30T00:19:11;10.39;73.57
66019;HTU21D;52787;51.084;5.816;2024-01-30T00:21:37;10.42;73.48
66019;HTU21D;52787;51.084;5.816;2024-01-30T00:24:03;10.41;73.41
66019;HTU21D;52787;51.084;5.816;2024-01-30T00:26:29;10.41;73.36
66019;HTU21D;52787;51.084;5.816;2024-01-30T00:28:55;10.39;73.38
66019;HTU21D;52787;51.084;5.816;2024-01-30T00:31:21;10.35;73.47
66019;HTU21D;52787;51.084;5.816;2024-01-30T00:33:46;10.36;73.53
66019;HTU21D;52787;51.084;5.816;2024-01-30T00:36:12;10.36;73.47
66019;HTU21D;52787;51.084;5.816;2024-01-30T00:38:38;10.37;73.50
66019;HTU21D;52787;51.084;5.816;2024-01-30T00:41:07;10.37;73.60
66019;HTU21D;52787;51.084;5.816;2024-01-30T00:43:33;10.38;73.60
66019;HTU21D;52787;51.084;5.816;2024-01-30T00:45:59;10.37;73.73
66019;HTU21D;52787;51.084;5.816;2024-01-30T00:48:25;10.37;73.83
66019;HTU21D;52787;51.084;5.816;2024-01-30T00:50:51;10.36;73.90
66019;HTU21D;52787;51.084;5.816;2024-01-30T00:53:16;10.37;73.89
66019;HTU21D;52787;51.084;5.816;2024-01-30T00:55:42;10.37;74.02
66019;HTU21D;52787;51.084;5.816;2024-01-30T00:58:08;10.36;74.04
66019;HTU21D;52787;51.084;5.816;2024-01-30T01:00:34;10.35;74.08
66019;HTU21D;52787;51.084;5.816;2024-01-30T01:03:00;10.34;74.22
66019;HTU21D;52787;51.084;5.816;2024-01-30T01:05:26;10.37;74.07
66019;HTU21D;52787;51.084;5.816;2024-01-30T01:07:52;10.35;73.97
66019;HTU21D;52787;51.084;5.816;2024-01-30T01:10:18;10.33;74.00
66019;HTU21D;52787;51.084;5.816;2024-01-30T01:12:45;10.31;74.01
66019;HTU21D;52787;51.084;5.816;2024-01-30T01:15:11;10.29;74.05
66019;HTU21D;52787;51.084;5.816;2024-01-30T01:17:38;10.27;74.12
66019;HTU21D;52787;51.084;5.816;2024-01-30T01:20:05;10.26;74.22
66019;HTU21D;52787;51.084;5.816;2024-01-30T01:22:32;10.24;74.27
66019;HTU21D;52787;51.084;5.816;2024-01-30T01:24:58;10.26;74.29
66019;HTU21D;52787;51.084;5.816;2024-01-30T01:27:25;10.27;74.18
66019;HTU21D;52787;51.084;5.816;2024-01-30T01:29:51;10.25;74.15
66019;HTU21D;52787;51.084;5.816;2024-01-30T01:32:18;10.23;74.18
66019;HTU21D;52787;51.084;5.816;2024-01-30T01:34:44;10.20;74.28
66019;HTU21D;52787;51.084;5.816;2024-01-30T01:37:10;10.20;74.38
66019;HTU21D;52787;51.084;5.816;2024-01-30T01:39:36;10.19;74.46
66019;HTU21D;52787;51.084;5.816;2024-01-30T01:42:01;10.19;74.51
66019;HTU21D;52787;51.084;5.816;2024-01-30T01:44:28;10.21;74.48
66019;HTU21D;52787;51.084;5.816;2024-01-30T01:46:54;10.21;74.53
66019;HTU21D;52787;51.084;5.816;2024-01-30T01:49:22;10.23;74.42
66019;HTU21D;52787;51.084;5.816;2024-01-30T01:51:51;10.23;74.32
66019;HTU21D;52787;51.084;5.816;2024-01-30T01:54:20;10.23;74.16
66019;HTU21D;52787;51.084;5.816;2024-01-30T01:56:46;10.24;74.11
66019;HTU21D;52787;51.084;5.816;2024-01-30T01:59:12;10.26;73.93
66019;HTU21D;52787;51.084;5.816;2024-01-30T02:01:39;10.26;73.77
66019;HTU21D;52787;51.084;5.816;2024-01-30T02:04:07;10.25;73.83
66019;HTU21D;52787;51.084;5.816;2024-01-30T02:06:34;10.23;73.72
66019;HTU21D;52787;51.084;5.816;2024-01-30T02:09:00;10.20;73.93
66019;HTU21D;52787;51.084;5.816;2024-01-30T02:11:28;10.24;73.85
66019;HTU21D;52787;51.084;5.816;2024-01-30T02:13:53;10.21;73.62
66019;HTU21D;52787;51.084;5.816;2024-01-30T02:16:19;10.16;73.99
66019;HTU21D;52787;51.084;5.816;2024-01-30T02:18:45;10.20;74.15
66019;HTU21D;52787;51.084;5.816;2024-01-30T02:21:17;10.18;74.37
66019;HTU21D;52787;51.084;5.816;2024-01-30T02:23:46;10.15;74.57
66019;HTU21D;52787;51.084;5.816;2024-01-30T02:26:12;10.15;74.78
66019;HTU21D;52787;51.084;5.816;2024-01-30T02:28:38;10.20;74.76
66019;HTU21D;52787;51.084;5.816;2024-01-30T02:31:05;10.22;74.67
66019;HTU21D;52787;51.084;5.816;2024-01-30T02:33:31;10.25;74.58
66019;HTU21D;52787;51.084;5.816;2024-01-30T02:35:56;10.27;74.67
66019;HTU21D;52787;51.084;5.816;2024-01-30T02:38:22;10.29;74.52
66019;HTU21D;52787;51.084;5.816;2024-01-30T02:40:49;10.30;74.42
66019;HTU21D;52787;51.084;5.816;2024-01-30T02:43:16;10.31;74.35
66019;HTU21D;52787;51.084;5.816;2024-01-30T02:45:42;10.33;74.40
66019;HTU21D;52787;51.084;5.816;2024-01-30T02:48:08;10.35;74.48
66019;HTU21D;52787;51.084;5.816;2024-01-30T02:50:33;10.37;74.65
66019;HTU21D;52787;51.084;5.816;2024-01-30T02:52:59;10.40;74.64
66019;HTU21D;52787;51.084;5.816;2024-01-30T02:55:25;10.43;74.65
66019;HTU21D;52787;51.084;5.816;2024-01-30T02:57:51;10.46;74.79
66019;HTU21D;52787;51.084;5.816;2024-01-30T03:00:17;10.49;74.89
66019;HTU21D;52787;51.084;5.816;2024-01-30T03:02:42;10.49;74.99
66019;HTU21D;52787;51.084;5.816;2024-01-30T03:05:09;10.50;75.10
66019;HTU21D;52787;51.084;5.816;2024-01-30T03:07:35;10.50;75.05
66019;HTU21D;52787;51.084;5.816;2024-01-30T03:10:01;10.49;74.99
66019;HTU21D;52787;51.084;5.816;2024-01-30T03:12:26;10.45;75.19
66019;HTU21D;52787;51.084;5.816;2024-01-30T03:14:52;10.43;75.31
66019;HTU21D;52787;51.084;5.816;2024-01-30T03:17:18;10.43;75.28
66019;HTU21D;52787;51.084;5.816;2024-01-30T03:19:44;10.41;75.45
66019;HTU21D;52787;51.084;5.816;2024-01-30T03:22:09;10.39;75.49
66019;HTU21D;52787;51.084;5.816;2024-01-30T03:24:35;10.39;75.54
66019;HTU21D;52787;51.084;5.816;2024-01-30T03:27:01;10.40;75.49
66019;HTU21D;52787;51.084;5.816;2024-01-30T03:29:27;10.41;75.43
66019;HTU21D;52787;51.084;5.816;2024-01-30T03:31:52;10.41;75.48
66019;HTU21D;52787;51.084;5.816;2024-01-30T03:34:18;10.44;75.32
66019;HTU21D;52787;51.084;5.816;2024-01-30T03:36:44;10.44;75.31
66019;HTU21D;52787;51.084;5.816;2024-01-30T03:39:10;10.45;75.26
66019;HTU21D;52787;51.084;5.816;2024-01-30T03:41:35;10.45;75.31
66019;HTU21D;52787;51.084;5.816;2024-01-30T03:44:01;10.46;75.33
66019;HTU21D;52787;51.084;5.816;2024-01-30T03:46:27;10.48;75.34
66019;HTU21D;52787;51.084;5.816;2024-01-30T03:48:53;10.48;75.37
66019;HTU21D;52787;51.084;5.816;2024-01-30T03:51:19;10.49;75.45
66019;HTU21D;52787;51.084;5.816;2024-01-30T03:53:45;10.52;75.40
66019;HTU21D;52787;51.084;5.816;2024-01-30T03:56:13;10.55;75.24
66019;HTU21D;52787;51.084;5.816;2024-01-30T03:58:39;10.56;75.04
66019;HTU21D;52787;51.084;5.816;2024-01-30T04:01:05;10.56;74.86
66019;HTU21D;52787;51.084;5.816;2024-01-30T04:03:31;10.55;74.99
66019;HTU21D;52787;51.084;5.816;2024-01-30T04:05:57;10.53;75.24
66019;HTU21D;52787;51.084;5.816;2024-01-30T04:08:22;10.52;75.41
66019;HTU21D;52787;51.084;5.816;2024-01-30T04:10:48;10.51;75.66
66019;HTU21D;52787;51.084;5.816;2024-01-30T04:13:14;10.49;75.82
66019;HTU21D;52787;51.084;5.816;2024-01-30T04:15:40;10.46;75.96
66019;HTU21D;52787;51.084;5.816;2024-01-30T04:18:06;10.45;76.14
66019;HTU21D;52787;51.084;5.816;2024-01-30T04:20:31;10.42;76.27
66019;HTU21D;52787;51.084;5.816;2024-01-30T04:22:57;10.42;76.34
66019;HTU21D;52787;51.084;5.816;2024-01-30T04:25:23;10.42;76.51
66019;HTU21D;52787;51.084;5.816;2024-01-30T04:27:49;10.43;76.53
66019;HTU21D;52787;51.084;5.816;2024-01-30T04:30:15;10.43;76.56
66019;HTU21D;52787;51.084;5.816;2024-01-30T04:32:41;10.43;76.65
66019;HTU21D;52787;51.084;5.816;2024-01-30T04:35:07;10.40;76.74
66019;HTU21D;52787;51.084;5.816;2024-01-30T04:37:33;10.41;76.76
66019;HTU21D;52787;51.084;5.816;2024-01-30T04:39:58;10.42;76.79
66019;HTU21D;52787;51.084;5.816;2024-01-30T04:42:24;10.42;76.82
66019;HTU21D;52787;51.084;5.816;2024-01-30T04:44:50;10.43;76.89
66019;HTU21D;52787;51.084;5.816;2024-01-30T04:47:16;10.44;76.98
66019;HTU21D;52787;51.084;5.816;2024-01-30T04:49:42;10.46;77.04
66019;HTU21D;52787;51.084;5.816;2024-01-30T04:52:08;10.49;77.13
66019;HTU21D;52787;51.084;5.816;2024-01-30T04:54:35;10.50;77.08
66019;HTU21D;52787;51.084;5.816;2024-01-30T04:57:02;10.55;77.11
66019;HTU21D;52787;51.084;5.816;2024-01-30T04:59:28;10.54;77.19
66019;HTU21D;52787;51.084;5.816;2024-01-30T05:01:54;10.57;77.24
66019;HTU21D;52787;51.084;5.816;2024-01-30T05:04:20;10.62;77.22
66019;HTU21D;52787;51.084;5.816;2024-01-30T05:06:47;10.62;77.23
66019;HTU21D;52787;51.084;5.816;2024-01-30T05:09:13;10.66;77.30
66019;HTU21D;52787;51.084;5.816;2024-01-30T05:11:39;10.67;77.38
66019;HTU21D;52787;51.084;5.816;2024-01-30T05:14:06;10.69;77.34
66019;HTU21D;52787;51.084;5.816;2024-01-30T05:16:33;10.71;77.29
66019;HTU21D;52787;51.084;5.816;2024-01-30T05:18:59;10.73;77.27
66019;HTU21D;52787;51.084;5.816;2024-01-30T05:21:25;10.75;77.26
66019;HTU21D;52787;51.084;5.816;2024-01-30T05:23:51;10.79;77.15
66019;HTU21D;52787;51.084;5.816;2024-01-30T05:26:17;10.81;77.11
66019;HTU21D;52787;51.084;5.816;2024-01-30T05:28:43;10.83;77.08
66019;HTU21D;52787;51.084;5.816;2024-01-30T05:31:12;10.84;76.99
66019;HTU21D;52787;51.084;5.816;2024-01-30T05:33:37;10.85;76.95
66019;HTU21D;52787;51.084;5.816;2024-01-30T05:36:04;10.85;76.98
66019;HTU21D;52787;51.084;5.816;2024-01-30T05:38:30;10.86;77.04
66019;HTU21D;52787;51.084;5.816;2024-01-30T05:40:57;10.87;77.07
66019;HTU21D;52787;51.084;5.816;2024-01-30T05:43:24;10.89;77.08
66019;HTU21D;52787;51.084;5.816;2024-01-30T05:45:50;10.93;77.15
66019;HTU21D;52787;51.084;5.816;2024-01-30T05:48:17;10.96;77.15
66019;HTU21D;52787;51.084;5.816;2024-01-30T05:50:42;10.99;77.10
66019;HTU21D;52787;51.084;5.816;2024-01-30T05:53:08;11.03;77.05
66019;HTU21D;52787;51.084;5.816;2024-01-30T05:55:34;11.08;76.87
66019;HTU21D;52787;51.084;5.816;2024-01-30T05:57:59;11.13;76.63
66019;HTU21D;52787;51.084;5.816;2024-01-30T06:00:25;11.13;76.59
66019;HTU21D;52787;51.084;5.816;2024-01-30T06:02:51;11.14;76.53
66019;HTU21D;52787;51.084;5.816;2024-01-30T06:05:17;11.15;76.54
66019;HTU21D;52787;51.084;5.816;2024-01-30T06:07:42;11.16;76.49
66019;HTU21D;52787;51.084;5.816;2024-01-30T06:10:09;11.16;76.53
66019;HTU21D;52787;51.084;5.816;2024-01-30T06:12:35;11.19;76.45
66019;HTU21D;52787;51.084;5.816;2024-01-30T06:15:01;11.19;76.44
66019;HTU21D;52787;51.084;5.816;2024-01-30T06:17:28;11.22;76.30
66019;HTU21D;52787;51.084;5.816;2024-01-30T06:19:54;11.22;76.24
66019;HTU21D;52787;51.084;5.816;2024-01-30T06:22:20;11.22;76.28
66019;HTU21D;52787;51.084;5.816;2024-01-30T06:24:46;11.23;76.23
66019;HTU21D;52787;51.084;5.816;2024-01-30T06:27:14;11.24;76.28
66019;HTU21D;52787;51.084;5.816;2024-01-30T06:29:42;11.25;76.28
66019;HTU21D;52787;51.084;5.816;2024-01-30T06:32:08;11.27;76.21
66019;HTU21D;52787;51.084;5.816;2024-01-30T06:34:34;11.25;76.35
66019;HTU21D;52787;51.084;5.816;2024-01-30T06:37:00;11.27;76.31
66019;HTU21D;52787;51.084;5.816;2024-01-30T06:39:26;11.28;76.32
66019;HTU21D;52787;51.084;5.816;2024-01-30T06:41:52;11.30;76.27
66019;HTU21D;52787;51.084;5.816;2024-01-30T06:44:18;11.32;76.26
66019;HTU21D;52787;51.084;5.816;2024-01-30T06:46:44;11.29;76.21
66019;HTU21D;52787;51.084;5.816;2024-01-30T06:49:10;11.30;76.28
66019;HTU21D;52787;51.084;5.816;2024-01-30T06:51:36;11.30;76.31
66019;HTU21D;52787;51.084;5.816;2024-01-30T06:54:01;11.30;76.35
66019;HTU21D;52787;51.084;5.816;2024-01-30T06:56:28;11.30;76.37
66019;HTU21D;52787;51.084;5.816;2024-01-30T06:58:54;11.29;76.47
66019;HTU21D;52787;51.084;5.816;2024-01-30T07:01:19;11.31;76.41
66019;HTU21D;52787;51.084;5.816;2024-01-30T07:03:46;11.30;76.45
66019;HTU21D;52787;51.084;5.816;2024-01-30T07:06:12;11.30;76.44
66019;HTU21D;52787;51.084;5.816;2024-01-30T07:08:38;11.32;76.41
66019;HTU21D;52787;51.084;5.816;2024-01-30T07:11:06;11.33;76.37
66019;HTU21D;52787;51.084;5.816;2024-01-30T07:13:33;11.33;76.24
66019;HTU21D;52787;51.084;5.816;2024-01-30T07:15:59;11.32;76.27
66019;HTU21D;52787;51.084;5.816;2024-01-30T07:18:25;11.31;76.30
66019;HTU21D;52787;51.084;5.816;2024-01-30T07:20:51;11.32;76.30
66019;HTU21D;52787;51.084;5.816;2024-01-30T07:23:17;11.31;76.35
66019;HTU21D;52787;51.084;5.816;2024-01-30T07:25:43;11.30;76.35
66019;HTU21D;52787;51.084;5.816;2024-01-30T07:28:10;11.30;76.41
66019;HTU21D;52787;51.084;5.816;2024-01-30T07:30:38;11.28;76.40
66019;HTU21D;52787;51.084;5.816;2024-01-30T07:33:04;11.29;76.52
66019;HTU21D;52787;51.084;5.816;2024-01-30T07:35:30;11.29;76.57
66019;HTU21D;52787;51.084;5.816;2024-01-30T07:37:56;11.28;76.57
66019;HTU21D;52787;51.084;5.816;2024-01-30T07:40:22;11.30;76.41
66019;HTU21D;52787;51.084;5.816;2024-01-30T07:42:49;11.29;76.42
66019;HTU21D;52787;51.084;5.816;2024-01-30T07:45:15;11.30;76.47
66019;HTU21D;52787;51.084;5.816;2024-01-30T07:47:42;11.31;76.41
66019;HTU21D;52787;51.084;5.816;2024-01-30T07:50:08;11.32;76.28
66019;HTU21D;52787;51.084;5.816;2024-01-30T07:52:34;11.32;76.34
66019;HTU21D;52787;51.084;5.816;2024-01-30T07:55:00;11.32;76.34
66019;HTU21D;52787;51.084;5.816;2024-01-30T07:57:26;11.34;76.33
66019;HTU21D;52787;51.084;5.816;2024-01-30T07:59:51;11.31;76.44
66019;HTU21D;52787;51.084;5.816;2024-01-30T08:02:17;11.31;76.50
66019;HTU21D;52787;51.084;5.816;2024-01-30T08:04:43;11.29;76.75
66019;HTU21D;52787;51.084;5.816;2024-01-30T08:07:09;11.29;76.98
66019;HTU21D;52787;51.084;5.816;2024-01-30T08:09:34;11.31;77.11
66019;HTU21D;52787;51.084;5.816;2024-01-30T08:12:00;11.36;77.06
66019;HTU21D;52787;51.084;5.816;2024-01-30T08:14:26;11.38;77.04
66019;HTU21D;52787;51.084;5.816;2024-01-30T08:16:53;11.42;77.10
66019;HTU21D;52787;51.084;5.816;2024-01-30T08:19:19;11.43;77.21
66019;HTU21D;52787;51.084;5.816;2024-01-30T08:21:44;11.46;77.26
66019;HTU21D;52787;51.084;5.816;2024-01-30T08:24:10;11.49;77.28
66019;HTU21D;52787;51.084;5.816;2024-01-30T08:26:36;11.55;77.24
66019;HTU21D;52787;51.084;5.816;2024-01-30T08:29:02;11.60;77.11
66019;HTU21D;52787;51.084;5.816;2024-01-30T08:31:28;11.67;76.95
66019;HTU21D;52787;51.084;5.816;2024-01-30T08:33:53;11.76;76.77
66019;HTU21D;52787;51.084;5.816;2024-01-30T08:36:20;11.84;76.51
66019;HTU21D;52787;51.084;5.816;2024-01-30T08:38:45;11.88;76.22
66019;HTU21D;52787;51.084;5.816;2024-01-30T08:41:11;11.96;76.05
66019;HTU21D;52787;51.084;5.816;2024-01-30T08:43:37;12.04;75.83
66019;HTU21D;52787;51.084;5.816;2024-01-30T08:46:03;12.11;75.50
66019;HTU21D;52787;51.084;5.816;2024-01-30T08:48:29;12.17;75.34
66019;HTU21D;52787;51.084;5.816;2024-01-30T08:50:55;12.21;75.12
66019;HTU21D;52787;51.084;5.816;2024-01-30T08:53:21;12.26;75.05
66019;HTU21D;52787;51.084;5.816;2024-01-30T08:55:46;12.27;75.05
66019;HTU21D;52787;51.084;5.816;2024-01-30T08:58:12;12.28;74.97
66019;HTU21D;52787;51.084;5.816;2024-01-30T09:00:38;12.27;75.00
66019;HTU21D;52787;51.084;5.816;2024-01-30T09:03:04;12.28;75.00
66019;HTU21D;52787;51.084;5.816;2024-01-30T09:05:30;12.28;75.05
66019;HTU21D;52787;51.084;5.816;2024-01-30T09:07:55;12.30;75.05
66019;HTU21D;52787;51.084;5.816;2024-01-30T09:10:22;12.34;74.82
66019;HTU21D;52787;51.084;5.816;2024-01-30T09:12:48;12.34;74.80
66019;HTU21D;52787;51.084;5.816;2024-01-30T09:15:15;12.33;74.94
66019;HTU21D;52787;51.084;5.816;2024-01-30T09:17:40;12.34;74.89
66019;HTU21D;52787;51.084;5.816;2024-01-30T09:20:06;12.36;74.80
66019;HTU21D;52787;51.084;5.816;2024-01-30T09:22:33;12.36;74.86
66019;HTU21D;52787;51.084;5.816;2024-01-30T09:24:59;12.38;75.01
66019;HTU21D;52787;51.084;5.816;2024-01-30T09:27:25;12.41;74.97
66019;HTU21D;52787;51.084;5.816;2024-01-30T09:29:51;12.44;74.92
66019;HTU21D;52787;51.084;5.816;2024-01-30T09:32:17;12.45;74.93
66019;HTU21D;52787;51.084;5.816;2024-01-30T09:34:43;12.46;74.91
66019;HTU21D;52787;51.084;5.816;2024-01-30T09:37:09;12.48;75.14
66019;HTU21D;52787;51.084;5.816;2024-01-30T09:39:35;12.53;74.99
66019;HTU21D;52787;51.084;5.816;2024-01-30T09:42:08;12.58;74.79
66019;HTU21D;52787;51.084;5.816;2024-01-30T09:44:53;12.63;74.60
66019;HTU21D;52787;51.084;5.816;2024-01-30T09:47:19;12.67;74.50
66019;HTU21D;52787;51.084;5.816;2024-01-30T09:49:45;12.70;74.44
66019;HTU21D;52787;51.084;5.816;2024-01-30T09:52:12;12.73;74.35
66019;HTU21D;52787;51.084;5.816;2024-01-30T09:54:38;12.75;74.15
66019;HTU21D;52787;51.084;5.816;2024-01-30T09:57:04;12.76;74.25
66019;HTU21D;52787;51.084;5.816;2024-01-30T09:59:31;12.77;74.30
66019;HTU21D;52787;51.084;5.816;2024-01-30T10:01:58;12.79;74.34
66019;HTU21D;52787;51.084;5.816;2024-01-30T10:04:23;12.85;74.33
66019;HTU21D;52787;51.084;5.816;2024-01-30T10:06:50;12.88;74.22
66019;HTU21D;52787;51.084;5.816;2024-01-30T10:09:16;12.89;74.25
66019;HTU21D;52787;51.084;5.816;2024-01-30T10:11:42;12.88;74.35
66019;HTU21D;52787;51.084;5.816;2024-01-30T10:14:08;12.90;74.41
66019;HTU21D;52787;51.084;5.816;2024-01-30T10:16:34;12.91;74.51
66019;HTU21D;52787;51.084;5.816;2024-01-30T10:19:00;12.93;74.53
66019;HTU21D;52787;51.084;5.816;2024-01-30T10:21:26;12.99;74.60
66019;HTU21D;52787;51.084;5.816;2024-01-30T10:23:52;13.03;74.61
66019;HTU21D;52787;51.084;5.816;2024-01-30T10:26:19;13.08;74.60
66019;HTU21D;52787;51.084;5.816;2024-01-30T10:28:44;13.15;74.51
66019;HTU21D;52787;51.084;5.816;2024-01-30T10:31:10;13.18;74.46
66019;HTU21D;52787;51.084;5.816;2024-01-30T10:33:36;13.26;74.42
66019;HTU21D;52787;51.084;5.816;2024-01-30T10:36:04;13.31;74.27
66019;HTU21D;52787;51.084;5.816;2024-01-30T10:38:32;13.32;74.31
66019;HTU21D;52787;51.084;5.816;2024-01-30T10:41:00;13.40;74.17
66019;HTU21D;52787;51.084;5.816;2024-01-30T10:43:35;13.52;73.61
66019;HTU21D;52787;51.084;5.816;2024-01-30T10:46:20;13.56;73.34
66019;HTU21D;52787;51.084;5.816;2024-01-30T10:48:57;13.53;73.31
66019;HTU21D;52787;51.084;5.816;2024-01-30T10:51:29;13.53;73.35
66019;HTU21D;52787;51.084;5.816;2024-01-30T10:53:57;13.53;73.37
66019;HTU21D;52787;51.084;5.816;2024-01-30T10:56:24;13.50;73.43
66019;HTU21D;52787;51.084;5.816;2024-01-30T10:58:51;13.45;73.60
66019;HTU21D;52787;51.084;5.816;2024-01-30T11:01:20;13.45;73.88
66019;HTU21D;52787;51.084;5.816;2024-01-30T11:03:51;13.44;73.96
66019;HTU21D;52787;51.084;5.816;2024-01-30T11:06:17;13.47;73.96
66019;HTU21D;52787;51.084;5.816;2024-01-30T11:08:46;13.49;73.99
66019;HTU21D;52787;51.084;5.816;2024-01-30T11:11:12;13.49;73.97
66019;HTU21D;52787;51.084;5.816;2024-01-30T11:13:38;13.48;74.03
66019;HTU21D;52787;51.084;5.816;2024-01-30T11:16:05;13.51;74.23
66019;HTU21D;52787;51.084;5.816;2024-01-30T11:18:32;13.51;74.27
66019;HTU21D;52787;51.084;5.816;2024-01-30T11:20:59;13.52;74.47
66019;HTU21D;52787;51.084;5.816;2024-01-30T11:23:33;13.54;74.53
66019;HTU21D;52787;51.084;5.816;2024-01-30T11:26:00;13.59;74.47
66019;HTU21D;52787;51.084;5.816;2024-01-30T11:28:32;13.64;74.35
66019;HTU21D;52787;51.084;5.816;2024-01-30T11:31:05;13.60;74.31
66019;HTU21D;52787;51.084;5.816;2024-01-30T11:33:37;13.54;74.58
66019;HTU21D;52787;51.084;5.816;2024-01-30T11:36:04;13.48;74.80
66019;HTU21D;52787;51.084;5.816;2024-01-30T11:38:32;13.47;75.10
66019;HTU21D;52787;51.084;5.816;2024-01-30T11:40:59;13.43;75.39
66019;HTU21D;52787;51.084;5.816;2024-01-30T11:43:25;13.38;75.54
66019;HTU21D;52787;51.084;5.816;2024-01-30T11:45:51;13.36;75.73
66019;HTU21D;52787;51.084;5.816;2024-01-30T11:48:17;13.30;75.95
66019;HTU21D;52787;51.084;5.816;2024-01-30T11:50:43;13.31;76.07
66019;HTU21D;52787;51.084;5.816;2024-01-30T11:53:12;13.31;76.00
66019;HTU21D;52787;51.084;5.816;2024-01-30T11:55:38;13.31;76.02
66019;HTU21D;52787;51.084;5.816;2024-01-30T11:58:04;13.29;76.14
66019;HTU21D;52787;51.084;5.816;2024-01-30T12:00:30;13.29;76.15
66019;HTU21D;52787;51.084;5.816;2024-01-30T12:02:56;13.27;76.15
66019;HTU21D;52787;51.084;5.816;2024-01-30T12:05:26;13.31;76.21
66019;HTU21D;52787;51.084;5.816;2024-01-30T12:07:53;13.30;76.23
66019;HTU21D;52787;51.084;5.816;2024-01-30T12:10:19;13.30;76.21
66019;HTU21D;52787;51.084;5.816;2024-01-30T12:12:49;13.25;76.28
66019;HTU21D;52787;51.084;5.816;2024-01-30T12:15:16;13.21;76.52
66019;HTU21D;52787;51.084;5.816;2024-01-30T12:17:44;13.19;76.86
66019;HTU21D;52787;51.084;5.816;2024-01-30T12:20:11;13.14;77.11
66019;HTU21D;52787;51.084;5.816;2024-01-30T12:22:43;13.14;77.21
66019;HTU21D;52787;51.084;5.816;2024-01-30T12:27:46;13.09;77.70
66019;HTU21D;52787;51.084;5.816;2024-01-30T12:30:18;13.10;77.94
66019;HTU21D;52787;51.084;5.816;2024-01-30T12:32:47;13.08;78.15
66019;HTU21D;52787;51.084;5.816;2024-01-30T12:35:16;13.08;78.27
66019;HTU21D;52787;51.084;5.816;2024-01-30T12:37:45;13.12;78.16
66019;HTU21D;52787;51.084;5.816;2024-01-30T12:40:13;13.11;78.22
66019;HTU21D;52787;51.084;5.816;2024-01-30T12:42:45;13.14;78.01
66019;HTU21D;52787;51.084;5.816;2024-01-30T12:45:14;13.16;77.69
66019;HTU21D;52787;51.084;5.816;2024-01-30T12:47:41;13.24;77.46
66019;HTU21D;52787;51.084;5.816;2024-01-30T12:50:07;13.22;76.90
66019;HTU21D;52787;51.084;5.816;2024-01-30T12:52:35;13.32;76.66
66019;HTU21D;52787;51.084;5.816;2024-01-30T12:55:01;13.45;76.28
66019;HTU21D;52787;51.084;5.816;2024-01-30T12:57:26;13.53;75.52
66019;HTU21D;52787;51.084;5.816;2024-01-30T12:59:52;13.61;75.25
66019;HTU21D;52787;51.084;5.816;2024-01-30T13:02:18;13.62;75.10
66019;HTU21D;52787;51.084;5.816;2024-01-30T13:04:44;13.61;75.25
66019;HTU21D;52787;51.084;5.816;2024-01-30T13:07:10;13.67;74.77
66019;HTU21D;52787;51.084;5.816;2024-01-30T13:09:36;13.67;74.44
66019;HTU21D;52787;51.084;5.816;2024-01-30T13:12:02;13.59;74.62
66019;HTU21D;52787;51.084;5.816;2024-01-30T13:14:27;13.52;74.80
66019;HTU21D;52787;51.084;5.816;2024-01-30T13:16:53;13.45;75.07
66019;HTU21D;52787;51.084;5.816;2024-01-30T13:19:19;13.40;75.21
66019;HTU21D;52787;51.084;5.816;2024-01-30T13:21:45;13.36;75.34
66019;HTU21D;52787;51.084;5.816;2024-01-30T13:24:11;13.33;75.23
66019;HTU21D;52787;51.084;5.816;2024-01-30T13:26:37;13.30;73.90
66019;HTU21D;52787;51.084;5.816;2024-01-30T13:29:03;13.20;72.95
66019;HTU21D;52787;51.084;5.816;2024-01-30T13:31:29;13.20;72.73
66019;HTU21D;52787;51.084;5.816;2024-01-30T13:33:55;13.26;72.44
66019;HTU21D;52787;51.084;5.816;2024-01-30T13:36:21;13.39;71.21
66019;HTU21D;52787;51.084;5.816;2024-01-30T13:38:47;13.45;70.35
66019;HTU21D;52787;51.084;5.816;2024-01-30T13:41:13;13.49;69.33
66019;HTU21D;52787;51.084;5.816;2024-01-30T13:43:39;13.55;69.31
66019;HTU21D;52787;51.084;5.816;2024-01-30T13:46:05;13.62;68.87
66019;HTU21D;52787;51.084;5.816;2024-01-30T13:48:31;13.66;68.56
66019;HTU21D;52787;51.084;5.816;2024-01-30T13:50:57;13.69;68.26
66019;HTU21D;52787;51.084;5.816;2024-01-30T13:53:23;13.75;68.28
66019;HTU21D;52787;51.084;5.816;2024-01-30T13:55:49;13.69;68.17
66019;HTU21D;52787;51.084;5.816;2024-01-30T13:58:15;13.70;68.39
66019;HTU21D;52787;51.084;5.816;2024-01-30T14:00:40;13.69;68.69
66019;HTU21D;52787;51.084;5.816;2024-01-30T14:03:06;13.68;67.11
66019;HTU21D;52787;51.084;5.816;2024-01-30T14:05:32;13.52;64.55
66019;HTU21D;52787;51.084;5.816;2024-01-30T14:07:58;13.48;65.12
66019;HTU21D;52787;51.084;5.816;2024-01-30T14:10:25;13.47;64.82
66019;HTU21D;52787;51.084;5.816;2024-01-30T14:12:51;13.58;64.30
66019;HTU21D;52787;51.084;5.816;2024-01-30T14:15:16;13.78;63.32
66019;HTU21D;52787;51.084;5.816;2024-01-30T14:17:45;14.19;63.43
66019;HTU21D;52787;51.084;5.816;2024-01-30T14:20:14;15.25;59.75
66019;HTU21D;52787;51.084;5.816;2024-01-30T14:22:42;15.63;56.37
66019;HTU21D;52787;51.084;5.816;2024-01-30T14:25:08;15.54;57.15
66019;HTU21D;52787;51.084;5.816;2024-01-30T14:27:35;15.54;57.02
66019;HTU21D;52787;51.084;5.816;2024-01-30T14:30:02;15.52;54.89
66019;HTU21D;52787;51.084;5.816;2024-01-30T14:32:31;15.15;54.13
66019;HTU21D;52787;51.084;5.816;2024-01-30T14:34:56;15.03;55.44
66019;HTU21D;52787;51.084;5.816;2024-01-30T14:37:22;14.99;54.86
66019;HTU21D;52787;51.084;5.816;2024-01-30T14:39:48;15.22;54.46
66019;HTU21D;52787;51.084;5.816;2024-01-30T14:42:15;15.21;52.55
66019;HTU21D;52787;51.084;5.816;2024-01-30T14:44:41;15.56;52.43
66019;HTU21D;52787;51.084;5.816;2024-01-30T14:47:08;16.98;49.57
66019;HTU21D;52787;51.084;5.816;2024-01-30T14:49:34;18.63;45.35
66019;HTU21D;52787;51.084;5.816;2024-01-30T14:52:00;19.97;42.19
66019;HTU21D;52787;51.084;5.816;2024-01-30T14:54:26;20.90;39.06
66019;HTU21D;52787;51.084;5.816;2024-01-30T14:56:53;21.51;37.27
66019;HTU21D;52787;51.084;5.816;2024-01-30T14:59:19;21.89;37.23
66019;HTU21D;52787;51.084;5.816;2024-01-30T15:01:45;22.26;35.30
66019;HTU21D;52787;51.084;5.816;2024-01-30T15:04:11;20.83;36.30
66019;HTU21D;52787;51.084;5.816;2024-01-30T15:06:37;18.65;40.67
66019;HTU21D;52787;51.084;5.816;2024-01-30T15:09:03;16.99;45.31
66019;HTU21D;52787;51.084;5.816;2024-01-30T15:11:29;15.81;48.28
66019;HTU21D;52787;51.084;5.816;2024-01-30T15:13:56;15.00;51.52